Time;durP1;ratioP1;P1;durP2;ratioP2;P2;SDS_P1;SDS_P2;PMS_P1;PMS_P2;Temp;Humidity;BMP_temperature;BMP_pressure;BME280_temperature;BME280_humidity;BME280_pressure;Samples;Min_cycle;Max_cycle;Signal;HPM_P1;HPM_P2
2024/01/07 00:01:25;;;;;;;16.53;10.17;;;;;;;;;;5006845;28;20305;-77
2024/01/07 00:03:52;;;;;;;16.97;10.70;;;;;;;;;;5017461;28;20210;-77
2024/01/07 00:06:18;;;;;;;16.40;10.00;;;;;;;;;;5013731;28;20178;-76
2024/01/07 00:08:44;;;;;;;15.10;10.03;;;;;;;;;;5028234;28;20186;-77
2024/01/07 00:11:10;;;;;;;18.33;10.97;;;;;;;;;;5008059;28;20217;-78
2024/01/07 00:13:36;;;;;;;17.63;10.63;;;;;;;;;;4987570;28;20255;-77
2024/01/07 00:16:03;;;;;;;17.07;10.70;;;;;;;;;;5019225;28;20282;-80
2024/01/07 00:18:29;;;;;;;15.53;9.67;;;;;;;;;;5024188;28;20183;-78
2024/01/07 00:20:55;;;;;;;16.73;10.80;;;;;;;;;;5026308;28;20186;-77
2024/01/07 00:23:21;;;;;;;17.60;10.70;;;;;;;;;;5022190;28;20214;-77
2024/01/07 00:25:47;;;;;;;16.63;10.37;;;;;;;;;;5021652;28;20201;-77
2024/01/07 00:28:14;;;;;;;15.77;10.37;;;;;;;;;;5016850;28;20218;-77
2024/01/07 00:30:40;;;;;;;14.67;9.83;;;;;;;;;;5021271;28;20186;-77
2024/01/07 00:33:06;;;;;;;15.20;9.90;;;;;;;;;;5026766;28;20724;-77
2024/01/07 00:35:32;;;;;;;14.73;9.97;;;;;;;;;;5019850;28;20179;-77
2024/01/07 00:37:58;;;;;;;14.53;9.73;;;;;;;;;;5018578;28;20191;-77
2024/01/07 00:40:24;;;;;;;13.53;9.17;;;;;;;;;;5017628;28;20270;-78
2024/01/07 00:42:51;;;;;;;13.33;9.00;;;;;;;;;;5018750;28;20357;-78
2024/01/07 00:45:17;;;;;;;13.20;8.63;;;;;;;;;;5007913;28;20620;-77
2024/01/07 00:47:43;;;;;;;11.63;7.60;;;;;;;;;;5018575;28;20229;-77
2024/01/07 00:50:09;;;;;;;12.50;8.47;;;;;;;;;;5005630;28;20607;-76
2024/01/07 00:52:37;;;;;;;11.70;7.63;;;;;;;;;;5002498;28;20249;-77
2024/01/07 00:55:06;;;;;;;11.73;7.63;;;;;;;;;;5028663;28;20248;-77
2024/01/07 00:57:33;;;;;;;11.00;7.60;;;;;;;;;;5010123;28;20183;-77
2024/01/07 01:00:00;;;;;;;9.80;7.00;;;;;;;;;;5030241;28;20225;-77
2024/01/07 01:02:26;;;;;;;11.53;6.97;;;;;;;;;;5022000;28;20217;-77
2024/01/07 01:04:53;;;;;;;9.70;6.90;;;;;;;;;;5020003;28;20677;-77
2024/01/07 01:07:19;;;;;;;12.13;7.30;;;;;;;;;;5025269;28;20618;-77
2024/01/07 01:09:45;;;;;;;9.50;6.57;;;;;;;;;;5025986;28;20282;-77
2024/01/07 01:12:11;;;;;;;9.80;6.20;;;;;;;;;;5025744;28;20309;-77
2024/01/07 01:14:37;;;;;;;10.63;6.77;;;;;;;;;;5027932;28;20191;-77
2024/01/07 01:17:04;;;;;;;8.87;6.07;;;;;;;;;;4990947;28;20218;-80
2024/01/07 01:19:30;;;;;;;8.67;5.37;;;;;;;;;;5028372;28;20190;-77
2024/01/07 01:21:56;;;;;;;8.50;5.93;;;;;;;;;;5009922;28;20191;-77
2024/01/07 01:24:22;;;;;;;8.40;6.07;;;;;;;;;;5026531;28;20183;-77
2024/01/07 01:26:49;;;;;;;7.23;5.40;;;;;;;;;;5010978;28;20230;-76
2024/01/07 01:29:15;;;;;;;6.30;5.10;;;;;;;;;;5029526;28;20670;-77
2024/01/07 01:31:41;;;;;;;7.60;5.23;;;;;;;;;;5024515;28;20209;-77
2024/01/07 01:34:07;;;;;;;8.47;5.63;;;;;;;;;;5021332;28;20214;-77
2024/01/07 01:36:33;;;;;;;8.07;4.80;;;;;;;;;;5021197;28;20647;-77
2024/01/07 01:38:59;;;;;;;6.43;4.97;;;;;;;;;;5025542;28;20187;-79
2024/01/07 01:41:25;;;;;;;7.37;5.20;;;;;;;;;;5030665;28;20183;-77
2024/01/07 01:43:52;;;;;;;7.07;5.07;;;;;;;;;;5027613;28;20206;-77
2024/01/07 01:46:18;;;;;;;6.20;4.70;;;;;;;;;;5024353;28;20574;-77
2024/01/07 01:48:44;;;;;;;7.23;4.77;;;;;;;;;;5011033;28;20202;-77
2024/01/07 01:51:11;;;;;;;7.10;5.20;;;;;;;;;;5028548;28;20226;-77
2024/01/07 01:53:38;;;;;;;6.57;5.40;;;;;;;;;;5026081;28;20211;-79
2024/01/07 01:56:04;;;;;;;7.03;5.00;;;;;;;;;;5029178;28;20208;-77
2024/01/07 01:58:31;;;;;;;6.90;4.90;;;;;;;;;;5026939;28;20183;-80
2024/01/07 02:00:57;;;;;;;7.93;5.27;;;;;;;;;;5028714;28;20206;-77
2024/01/07 02:03:25;;;;;;;8.27;5.37;;;;;;;;;;5002476;28;20301;-77
2024/01/07 02:05:52;;;;;;;7.93;5.67;;;;;;;;;;5016492;28;20183;-77
2024/01/07 02:08:19;;;;;;;7.73;5.20;;;;;;;;;;5025551;28;20186;-77
2024/01/07 02:10:45;;;;;;;7.90;5.50;;;;;;;;;;5008307;28;20290;-77
2024/01/07 02:13:12;;;;;;;8.10;5.60;;;;;;;;;;5012270;28;20520;-77
2024/01/07 02:15:38;;;;;;;6.77;4.90;;;;;;;;;;5026980;28;20197;-77
2024/01/07 02:18:04;;;;;;;7.83;5.50;;;;;;;;;;5012918;28;20202;-77
2024/01/07 02:20:31;;;;;;;7.67;5.83;;;;;;;;;;5032500;28;20210;-76
2024/01/07 02:23:00;;;;;;;8.70;5.90;;;;;;;;;;5025974;28;20591;-77
2024/01/07 02:25:26;;;;;;;8.33;5.57;;;;;;;;;;5024243;28;20257;-77
2024/01/07 02:27:52;;;;;;;7.10;5.77;;;;;;;;;;5025726;28;20210;-77
2024/01/07 02:30:18;;;;;;;7.83;5.47;;;;;;;;;;5026790;28;20195;-77
2024/01/07 02:32:44;;;;;;;8.37;6.20;;;;;;;;;;5031274;28;20214;-77
2024/01/07 02:35:10;;;;;;;8.40;5.67;;;;;;;;;;5035135;28;20213;-77
2024/01/07 02:37:36;;;;;;;8.30;6.07;;;;;;;;;;5033734;28;20551;-77
2024/01/07 02:40:03;;;;;;;8.80;6.10;;;;;;;;;;5024319;28;20266;-76
2024/01/07 02:42:30;;;;;;;8.23;6.37;;;;;;;;;;5011313;28;20245;-77
2024/01/07 02:44:57;;;;;;;8.10;5.97;;;;;;;;;;5028755;28;20289;-77
2024/01/07 02:47:23;;;;;;;8.70;6.60;;;;;;;;;;5023722;28;20182;-77
2024/01/07 02:49:50;;;;;;;10.30;6.47;;;;;;;;;;5022670;28;20214;-77
2024/01/07 02:52:16;;;;;;;9.57;6.87;;;;;;;;;;5024948;28;20217;-77
2024/01/07 02:54:42;;;;;;;9.30;7.10;;;;;;;;;;5027042;28;20197;-77
2024/01/07 02:57:08;;;;;;;9.83;7.20;;;;;;;;;;5025713;28;20509;-77
2024/01/07 02:59:34;;;;;;;8.80;6.83;;;;;;;;;;5022957;28;20183;-77
2024/01/07 03:02:01;;;;;;;10.07;7.03;;;;;;;;;;5022386;28;20214;-77
2024/01/07 03:04:27;;;;;;;11.10;8.13;;;;;;;;;;5026048;28;20210;-77
2024/01/07 03:06:53;;;;;;;9.50;7.57;;;;;;;;;;5009554;28;20195;-76
2024/01/07 03:09:19;;;;;;;9.17;7.07;;;;;;;;;;5024388;28;20194;-77
2024/01/07 03:11:45;;;;;;;9.43;6.73;;;;;;;;;;5023649;28;20302;-77
2024/01/07 03:14:12;;;;;;;8.77;6.87;;;;;;;;;;5030525;28;20205;-77
2024/01/07 03:16:38;;;;;;;8.57;6.90;;;;;;;;;;5024292;28;20253;-77
2024/01/07 03:19:04;;;;;;;10.17;7.90;;;;;;;;;;5026592;28;20188;-77
2024/01/07 03:21:30;;;;;;;11.93;8.03;;;;;;;;;;5028956;28;20190;-77
2024/01/07 03:23:56;;;;;;;10.20;7.90;;;;;;;;;;5028405;28;20206;-77
2024/01/07 03:26:23;;;;;;;9.77;7.00;;;;;;;;;;5025357;28;20186;-77
2024/01/07 03:28:49;;;;;;;8.90;7.07;;;;;;;;;;5021159;28;20579;-77
2024/01/07 03:31:16;;;;;;;10.20;7.50;;;;;;;;;;5022441;28;20210;-77
2024/01/07 03:33:42;;;;;;;10.90;7.97;;;;;;;;;;5030358;28;20556;-77
2024/01/07 03:36:09;;;;;;;10.50;7.50;;;;;;;;;;5028025;28;20175;-77
2024/01/07 03:38:36;;;;;;;9.83;7.10;;;;;;;;;;5012128;28;20178;-77
2024/01/07 03:41:02;;;;;;;9.83;7.07;;;;;;;;;;5021789;28;20718;-77
2024/01/07 03:43:28;;;;;;;11.77;7.10;;;;;;;;;;5027128;28;20207;-76
2024/01/07 03:45:55;;;;;;;8.80;6.90;;;;;;;;;;5018541;28;20233;-77
2024/01/07 03:48:21;;;;;;;9.03;7.07;;;;;;;;;;5023370;28;20197;-77
2024/01/07 03:50:47;;;;;;;9.63;7.10;;;;;;;;;;5028613;28;20186;-77
2024/01/07 03:53:13;;;;;;;9.97;6.87;;;;;;;;;;5023673;28;20352;-78
2024/01/07 03:55:40;;;;;;;9.37;7.17;;;;;;;;;;5025104;28;20269;-77
2024/01/07 03:58:07;;;;;;;9.17;6.77;;;;;;;;;;5025047;28;20287;-77
2024/01/07 04:00:33;;;;;;;9.13;6.90;;;;;;;;;;5020045;28;20204;-77
2024/01/07 04:02:59;;;;;;;9.17;6.33;;;;;;;;;;5006219;28;20348;-77
2024/01/07 04:05:26;;;;;;;10.10;7.10;;;;;;;;;;5028631;28;20257;-76
2024/01/07 04:07:52;;;;;;;10.13;7.87;;;;;;;;;;5024412;28;20187;-78
2024/01/07 04:10:18;;;;;;;11.03;6.73;;;;;;;;;;5028039;28;20756;-78
2024/01/07 04:12:45;;;;;;;8.50;6.50;;;;;;;;;;5020279;28;20728;-77
2024/01/07 04:15:12;;;;;;;8.37;6.50;;;;;;;;;;5025935;28;20175;-77
2024/01/07 04:17:38;;;;;;;8.87;6.23;;;;;;;;;;5024769;28;20186;-77
2024/01/07 04:20:06;;;;;;;9.10;6.97;;;;;;;;;;5028210;28;20197;-77
2024/01/07 04:22:32;;;;;;;8.30;6.50;;;;;;;;;;5030840;28;20289;-78
2024/01/07 04:24:58;;;;;;;8.87;6.27;;;;;;;;;;5031174;28;20659;-78
2024/01/07 04:27:27;;;;;;;7.63;6.13;;;;;;;;;;5022301;28;20191;-78
2024/01/07 04:29:53;;;;;;;6.87;5.70;;;;;;;;;;5030409;28;20726;-78
2024/01/07 04:32:20;;;;;;;8.43;5.97;;;;;;;;;;5024847;28;20225;-77
2024/01/07 04:34:46;;;;;;;8.87;6.53;;;;;;;;;;5033087;28;20273;-77
2024/01/07 04:37:12;;;;;;;8.70;6.47;;;;;;;;;;5028766;28;20214;-77
2024/01/07 04:39:38;;;;;;;7.90;5.97;;;;;;;;;;5027343;28;20190;-78
2024/01/07 04:42:04;;;;;;;8.63;6.10;;;;;;;;;;5029627;28;20668;-78
2024/01/07 04:44:30;;;;;;;8.73;6.40;;;;;;;;;;5028832;28;20402;-77
2024/01/07 04:46:57;;;;;;;9.17;6.83;;;;;;;;;;5026166;28;20186;-76
2024/01/07 04:49:23;;;;;;;8.60;6.07;;;;;;;;;;5026396;28;20213;-77
2024/01/07 04:51:49;;;;;;;8.20;6.40;;;;;;;;;;5014832;28;20690;-78
2024/01/07 04:54:15;;;;;;;8.67;6.60;;;;;;;;;;5029480;28;20249;-78
2024/01/07 04:56:41;;;;;;;8.43;6.60;;;;;;;;;;5023269;28;20217;-78
2024/01/07 04:59:07;;;;;;;8.67;6.30;;;;;;;;;;5027934;28;20217;-78
2024/01/07 05:01:35;;;;;;;9.37;6.40;;;;;;;;;;5025129;28;20256;-78
2024/01/07 05:04:01;;;;;;;8.10;6.20;;;;;;;;;;5028268;28;20210;-78
2024/01/07 05:06:27;;;;;;;9.87;6.63;;;;;;;;;;5023910;28;20201;-78
2024/01/07 05:08:53;;;;;;;9.37;6.23;;;;;;;;;;5028137;28;20179;-78
2024/01/07 05:11:20;;;;;;;10.27;7.07;;;;;;;;;;5013624;28;20712;-78
2024/01/07 05:13:46;;;;;;;8.80;6.27;;;;;;;;;;5023754;28;20207;-77
2024/01/07 05:16:19;;;;;;;9.77;6.50;;;;;;;;;;5008517;28;20187;-77
2024/01/07 05:18:48;;;;;;;10.03;7.00;;;;;;;;;;5029739;28;20961;-77
2024/01/07 05:21:19;;;;;;;9.23;6.17;;;;;;;;;;5030722;28;20186;-78
2024/01/07 05:23:45;;;;;;;8.40;6.33;;;;;;;;;;5018676;28;20215;-78
2024/01/07 05:26:11;;;;;;;9.70;6.73;;;;;;;;;;5018194;28;20183;-78
2024/01/07 05:28:37;;;;;;;10.53;7.40;;;;;;;;;;5020787;28;20183;-79
2024/01/07 05:31:04;;;;;;;11.73;7.63;;;;;;;;;;5020674;28;20191;-77
2024/01/07 05:33:30;;;;;;;14.20;7.47;;;;;;;;;;5012666;28;20212;-77
2024/01/07 05:35:56;;;;;;;12.13;7.13;;;;;;;;;;5009115;28;20194;-77
2024/01/07 05:38:23;;;;;;;9.33;6.63;;;;;;;;;;5021248;28;20191;-76
2024/01/07 05:40:49;;;;;;;10.60;6.90;;;;;;;;;;5002232;28;20195;-76
2024/01/07 05:43:15;;;;;;;10.77;7.07;;;;;;;;;;5017382;28;20202;-77
2024/01/07 05:45:41;;;;;;;10.23;7.50;;;;;;;;;;5019890;28;20182;-78
2024/01/07 05:48:08;;;;;;;12.17;7.07;;;;;;;;;;5018924;28;20602;-78
2024/01/07 05:50:34;;;;;;;11.10;7.30;;;;;;;;;;5024555;28;20258;-77
2024/01/07 05:53:00;;;;;;;10.70;7.10;;;;;;;;;;5029641;28;20564;-77
2024/01/07 05:55:26;;;;;;;11.87;7.90;;;;;;;;;;5026262;28;20452;-77
2024/01/07 05:57:52;;;;;;;12.63;8.37;;;;;;;;;;5019230;28;20286;-78
2024/01/07 06:00:18;;;;;;;12.97;8.20;;;;;;;;;;5016217;28;20199;-77
2024/01/07 06:02:44;;;;;;;10.47;7.23;;;;;;;;;;5027667;28;20207;-77
2024/01/07 06:05:10;;;;;;;12.80;8.37;;;;;;;;;;5028979;28;20195;-77
2024/01/07 06:07:37;;;;;;;13.23;8.83;;;;;;;;;;5030656;28;20182;-78
2024/01/07 06:10:03;;;;;;;15.80;9.50;;;;;;;;;;5024189;28;20246;-78
2024/01/07 06:12:29;;;;;;;14.27;9.60;;;;;;;;;;5023306;28;20304;-78
2024/01/07 06:14:55;;;;;;;15.27;9.83;;;;;;;;;;5020845;28;20593;-78
2024/01/07 06:17:22;;;;;;;13.90;8.80;;;;;;;;;;5019485;28;20182;-78
2024/01/07 06:19:48;;;;;;;15.97;9.53;;;;;;;;;;5025185;28;20265;-78
2024/01/07 06:22:14;;;;;;;14.40;9.57;;;;;;;;;;5030747;28;20213;-78
2024/01/07 06:24:40;;;;;;;15.80;9.80;;;;;;;;;;5027105;28;20738;-77
2024/01/07 06:27:06;;;;;;;13.40;9.53;;;;;;;;;;5028095;28;20239;-78
2024/01/07 06:29:33;;;;;;;18.27;10.70;;;;;;;;;;5017159;28;20191;-77
2024/01/07 06:31:59;;;;;;;16.73;11.57;;;;;;;;;;5021829;28;20207;-78
2024/01/07 06:34:25;;;;;;;15.80;10.97;;;;;;;;;;5028291;28;20413;-78
2024/01/07 06:36:52;;;;;;;15.40;10.43;;;;;;;;;;5027801;28;20191;-77
2024/01/07 06:39:18;;;;;;;17.37;11.53;;;;;;;;;;5028136;28;20195;-77
2024/01/07 06:41:44;;;;;;;17.23;11.27;;;;;;;;;;5023302;28;20265;-78
2024/01/07 06:44:10;;;;;;;17.50;12.00;;;;;;;;;;5022057;28;20724;-77
2024/01/07 06:46:36;;;;;;;15.40;11.17;;;;;;;;;;5018963;28;20323;-78
2024/01/07 06:49:02;;;;;;;16.20;10.70;;;;;;;;;;5027713;28;20281;-77
2024/01/07 06:51:29;;;;;;;19.00;11.00;;;;;;;;;;5023992;28;21012;-78
2024/01/07 06:53:55;;;;;;;17.37;11.17;;;;;;;;;;5027736;28;20212;-78
2024/01/07 06:56:21;;;;;;;19.23;12.10;;;;;;;;;;5028938;28;20679;-77
2024/01/07 06:58:47;;;;;;;18.83;12.27;;;;;;;;;;5020631;28;20415;-78
2024/01/07 07:01:13;;;;;;;19.40;12.97;;;;;;;;;;5023877;28;20260;-78
2024/01/07 07:03:41;;;;;;;19.63;13.00;;;;;;;;;;5025188;28;20301;-77
2024/01/07 07:06:07;;;;;;;19.90;12.90;;;;;;;;;;5006401;28;20282;-79
2024/01/07 07:08:33;;;;;;;18.30;12.00;;;;;;;;;;5010999;28;20648;-79
2024/01/07 07:11:01;;;;;;;17.60;12.00;;;;;;;;;;5028585;28;20390;-79
2024/01/07 07:13:27;;;;;;;17.67;12.40;;;;;;;;;;5024797;28;20720;-79
2024/01/07 07:15:53;;;;;;;18.20;12.40;;;;;;;;;;5025478;28;20178;-79
2024/01/07 07:18:19;;;;;;;18.63;13.20;;;;;;;;;;5026701;28;20179;-79
2024/01/07 07:20:45;;;;;;;18.60;13.37;;;;;;;;;;5028073;28;20634;-79
2024/01/07 07:23:11;;;;;;;19.67;13.60;;;;;;;;;;5027662;28;20210;-79
2024/01/07 07:25:38;;;;;;;17.87;12.33;;;;;;;;;;5019844;28;20198;-79
2024/01/07 07:28:04;;;;;;;21.00;14.23;;;;;;;;;;5010151;28;20186;-79
2024/01/07 07:30:30;;;;;;;20.47;13.90;;;;;;;;;;5022480;28;20186;-79
2024/01/07 07:32:56;;;;;;;20.53;14.67;;;;;;;;;;5020094;28;20225;-79
2024/01/07 07:35:22;;;;;;;20.20;13.93;;;;;;;;;;5013340;28;20217;-79
2024/01/07 07:37:48;;;;;;;20.73;13.67;;;;;;;;;;5027951;28;20187;-79
2024/01/07 07:40:14;;;;;;;17.83;13.35;;;;;;;;;;5036117;28;20433;-78
2024/01/07 07:42:40;;;;;;;17.40;13.00;;;;;;;;;;5026481;28;20613;-79
2024/01/07 07:45:07;;;;;;;19.03;14.03;;;;;;;;;;5017023;28;20194;-78
2024/01/07 07:47:33;;;;;;;17.87;12.97;;;;;;;;;;5027722;28;20290;-79
2024/01/07 07:49:59;;;;;;;17.53;13.43;;;;;;;;;;5013372;28;20259;-77
2024/01/07 07:52:25;;;;;;;18.13;12.13;;;;;;;;;;5024531;28;20223;-79
2024/01/07 07:54:52;;;;;;;17.93;13.07;;;;;;;;;;5027260;28;20485;-79
2024/01/07 07:57:20;;;;;;;20.43;13.23;;;;;;;;;;5028379;28;20174;-79
2024/01/07 07:59:47;;;;;;;17.87;12.83;;;;;;;;;;5028411;28;20190;-79
2024/01/07 08:02:13;;;;;;;17.07;12.67;;;;;;;;;;5024576;28;20313;-79
2024/01/07 08:04:41;;;;;;;20.83;14.13;;;;;;;;;;5026588;28;20232;-79
2024/01/07 08:07:07;;;;;;;17.13;12.80;;;;;;;;;;5028586;28;20186;-76
2024/01/07 08:09:35;;;;;;;18.13;12.67;;;;;;;;;;5030043;28;20225;-76
2024/01/07 08:12:02;;;;;;;19.87;13.57;;;;;;;;;;5029186;28;20272;-82
2024/01/07 08:14:28;;;;;;;19.07;13.47;;;;;;;;;;5030458;28;20238;-84
2024/01/07 08:16:55;;;;;;;20.63;14.63;;;;;;;;;;5031174;28;20856;-81
2024/01/07 08:19:21;;;;;;;23.47;14.90;;;;;;;;;;5024104;28;20554;-82
2024/01/07 08:21:47;;;;;;;18.37;12.67;;;;;;;;;;5031165;28;20276;-79
2024/01/07 08:24:13;;;;;;;17.67;12.03;;;;;;;;;;5027349;28;20214;-81
2024/01/07 08:26:39;;;;;;;15.30;11.73;;;;;;;;;;5013897;28;20533;-79
2024/01/07 08:29:06;;;;;;;15.30;11.83;;;;;;;;;;5031864;28;20267;-83
2024/01/07 08:31:32;;;;;;;13.93;11.03;;;;;;;;;;5008171;28;20296;-80
2024/01/07 08:33:59;;;;;;;16.80;12.70;;;;;;;;;;5025836;28;20233;-80
2024/01/07 08:36:26;;;;;;;16.60;11.77;;;;;;;;;;5029255;28;20190;-80
2024/01/07 08:38:52;;;;;;;14.37;10.93;;;;;;;;;;5013183;28;20183;-80
2024/01/07 08:41:18;;;;;;;16.13;11.20;;;;;;;;;;5026012;28;20201;-79
2024/01/07 08:43:45;;;;;;;15.67;11.83;;;;;;;;;;5042833;28;20226;-82
2024/01/07 08:46:13;;;;;;;13.23;10.00;;;;;;;;;;5040076;28;20187;-79
2024/01/07 08:48:39;;;;;;;13.93;10.33;;;;;;;;;;5043691;28;20179;-79
2024/01/07 08:51:05;;;;;;;15.43;11.20;;;;;;;;;;4995812;28;20301;-79
2024/01/07 08:53:32;;;;;;;17.07;11.47;;;;;;;;;;5020587;28;20209;-79
2024/01/07 08:55:58;;;;;;;14.57;10.93;;;;;;;;;;5019197;28;20273;-79
2024/01/07 08:58:25;;;;;;;18.10;12.40;;;;;;;;;;5022603;28;20218;-79
2024/01/07 09:00:51;;;;;;;16.47;11.87;;;;;;;;;;5025485;28;20297;-79
2024/01/07 09:03:17;;;;;;;15.93;11.27;;;;;;;;;;5025419;28;20777;-79
2024/01/07 09:05:44;;;;;;;15.33;11.20;;;;;;;;;;5008722;28;20205;-81
2024/01/07 09:08:11;;;;;;;15.53;11.17;;;;;;;;;;5011254;28;20243;-79
2024/01/07 09:10:37;;;;;;;14.70;11.20;;;;;;;;;;4995309;28;20249;-80
2024/01/07 09:13:04;;;;;;;13.73;10.47;;;;;;;;;;5012881;28;20210;-81
2024/01/07 09:15:30;;;;;;;13.97;10.70;;;;;;;;;;5026556;28;20237;-80
2024/01/07 09:17:56;;;;;;;14.80;10.23;;;;;;;;;;5026884;28;20286;-80
2024/01/07 09:20:22;;;;;;;16.17;11.00;;;;;;;;;;5028568;28;20179;-81
2024/01/07 09:22:48;;;;;;;14.90;11.17;;;;;;;;;;5026637;28;20294;-79
2024/01/07 09:25:15;;;;;;;14.23;9.80;;;;;;;;;;5027824;28;20195;-79
2024/01/07 09:27:41;;;;;;;11.70;9.00;;;;;;;;;;5024679;28;20688;-79
2024/01/07 09:30:10;;;;;;;11.50;8.80;;;;;;;;;;5027627;28;20186;-79
2024/01/07 09:32:37;;;;;;;11.17;8.57;;;;;;;;;;5023632;28;20230;-79
2024/01/07 09:35:05;;;;;;;14.17;8.73;;;;;;;;;;5021639;28;20194;-80
2024/01/07 09:37:31;;;;;;;10.70;8.37;;;;;;;;;;5027143;28;20260;-79
2024/01/07 09:39:58;;;;;;;10.63;8.23;;;;;;;;;;5026252;28;20183;-79
2024/01/07 09:42:24;;;;;;;12.70;8.53;;;;;;;;;;5025130;28;20577;-79
2024/01/07 09:44:51;;;;;;;12.67;9.40;;;;;;;;;;5028744;28;20182;-77
2024/01/07 09:47:17;;;;;;;11.60;8.90;;;;;;;;;;5009148;28;20638;-77
2024/01/07 09:49:44;;;;;;;10.60;8.50;;;;;;;;;;5002352;28;20240;-78
2024/01/07 09:52:11;;;;;;;12.30;8.37;;;;;;;;;;5023802;28;20218;-77
2024/01/07 09:54:38;;;;;;;10.47;7.80;;;;;;;;;;5006640;28;20706;-77
2024/01/07 09:57:08;;;;;;;9.93;7.73;;;;;;;;;;5005432;28;20495;-78
2024/01/07 09:59:39;;;;;;;11.60;8.60;;;;;;;;;;5023934;28;20181;-78
2024/01/07 10:02:05;;;;;;;10.10;8.07;;;;;;;;;;5007823;28;20285;-78
2024/01/07 10:04:31;;;;;;;9.97;7.97;;;;;;;;;;5023027;28;20216;-78
2024/01/07 10:06:57;;;;;;;11.97;8.80;;;;;;;;;;5022661;28;20179;-78
2024/01/07 10:09:26;;;;;;;11.77;8.67;;;;;;;;;;5020786;28;20182;-78
2024/01/07 10:11:53;;;;;;;10.40;7.80;;;;;;;;;;5017180;28;20225;-78
2024/01/07 10:14:22;;;;;;;11.43;8.27;;;;;;;;;;5017794;28;20179;-78
2024/01/07 10:16:50;;;;;;;10.43;8.37;;;;;;;;;;5022682;28;20577;-78
2024/01/07 10:19:21;;;;;;;11.77;8.47;;;;;;;;;;5021609;28;20189;-78
2024/01/07 10:21:47;;;;;;;9.77;7.93;;;;;;;;;;5024195;28;20289;-79
2024/01/07 10:24:13;;;;;;;11.40;8.30;;;;;;;;;;5025580;28;20245;-78
2024/01/07 10:26:40;;;;;;;10.30;7.83;;;;;;;;;;5023625;28;20261;-78
2024/01/07 10:29:08;;;;;;;10.37;7.83;;;;;;;;;;5026779;28;20750;-78
2024/01/07 10:31:34;;;;;;;8.40;6.97;;;;;;;;;;5020295;28;20259;-78
2024/01/07 10:34:00;;;;;;;9.53;7.33;;;;;;;;;;5024647;28;20280;-78
2024/01/07 10:36:26;;;;;;;9.90;7.93;;;;;;;;;;5021056;28;20581;-78
2024/01/07 10:38:53;;;;;;;10.43;7.60;;;;;;;;;;5021278;28;20189;-78
2024/01/07 10:41:20;;;;;;;9.83;7.57;;;;;;;;;;5023234;28;20226;-78
2024/01/07 10:43:50;;;;;;;9.60;7.60;;;;;;;;;;5023352;28;20725;-78
2024/01/07 10:46:19;;;;;;;9.10;7.43;;;;;;;;;;5024993;28;20183;-78
2024/01/07 10:48:52;;;;;;;10.40;7.83;;;;;;;;;;5026121;28;20193;-78
2024/01/07 10:51:20;;;;;;;9.97;7.17;;;;;;;;;;5025014;28;20244;-78
2024/01/07 10:53:49;;;;;;;8.77;6.77;;;;;;;;;;5028692;28;20281;-78
2024/01/07 10:56:16;;;;;;;8.83;6.87;;;;;;;;;;5024974;28;20182;-78
2024/01/07 10:58:42;;;;;;;7.17;5.70;;;;;;;;;;5006585;28;20624;-78
2024/01/07 11:01:09;;;;;;;8.10;6.37;;;;;;;;;;5022043;28;20221;-78
2024/01/07 11:03:38;;;;;;;8.07;6.73;;;;;;;;;;5026103;28;20758;-78
2024/01/07 11:06:21;;;;;;;8.20;6.30;;;;;;;;;;5024216;28;20548;-78
2024/01/07 11:08:58;;;;;;;8.10;6.47;;;;;;;;;;5023454;28;20182;-78
2024/01/07 11:11:28;;;;;;;8.67;7.30;;;;;;;;;;5024849;28;20698;-78
2024/01/07 11:13:54;;;;;;;9.77;7.30;;;;;;;;;;5025394;28;20217;-79
2024/01/07 11:16:40;;;;;;;8.90;6.93;;;;;;;;;;5023515;28;20178;-81
2024/01/07 11:19:06;;;;;;;8.30;6.77;;;;;;;;;;5027271;28;20197;-79
2024/01/07 11:21:32;;;;;;;7.57;6.57;;;;;;;;;;5023597;28;20274;-79
2024/01/07 11:23:59;;;;;;;7.80;6.33;;;;;;;;;;5026304;28;20256;-81
2024/01/07 11:26:30;;;;;;;8.07;6.57;;;;;;;;;;5003809;28;20241;-78
2024/01/07 11:28:56;;;;;;;8.70;6.87;;;;;;;;;;5020157;28;20182;-78
2024/01/07 11:31:41;;;;;;;9.70;7.60;;;;;;;;;;5021295;28;20651;-79
2024/01/07 11:34:08;;;;;;;7.10;6.30;;;;;;;;;;5022022;28;20811;-80
2024/01/07 11:36:38;;;;;;;7.80;6.60;;;;;;;;;;5020036;28;20673;-80
2024/01/07 11:39:06;;;;;;;8.93;6.77;;;;;;;;;;5019702;28;20183;-79
2024/01/07 11:41:36;;;;;;;9.37;7.50;;;;;;;;;;5028254;28;20189;-84
2024/01/07 11:44:02;;;;;;;9.00;7.33;;;;;;;;;;5028670;28;20583;-79
2024/01/07 11:46:29;;;;;;;9.67;7.40;;;;;;;;;;5018900;28;20256;-80
2024/01/07 11:48:58;;;;;;;8.83;7.57;;;;;;;;;;5014642;28;20226;-79
2024/01/07 11:51:27;;;;;;;10.10;7.13;;;;;;;;;;5021538;28;20219;-79
2024/01/07 11:53:53;;;;;;;9.67;6.87;;;;;;;;;;5021782;28;20279;-79
2024/01/07 11:56:20;;;;;;;8.43;6.87;;;;;;;;;;5020173;28;20196;-80
2024/01/07 11:58:46;;;;;;;8.93;7.40;;;;;;;;;;5018964;28;20183;-80
2024/01/07 12:01:14;;;;;;;9.90;7.73;;;;;;;;;;5016180;28;20218;-79
2024/01/07 12:03:41;;;;;;;9.47;7.70;;;;;;;;;;5025171;28;20218;-79
2024/01/07 12:06:07;;;;;;;10.03;8.20;;;;;;;;;;5019471;28;20195;-80
2024/01/07 12:08:34;;;;;;;9.67;7.73;;;;;;;;;;5021510;28;20179;-79
2024/01/07 12:11:00;;;;;;;10.77;8.43;;;;;;;;;;5023023;28;20662;-80
2024/01/07 12:13:27;;;;;;;10.43;7.73;;;;;;;;;;5019499;28;20223;-79
2024/01/07 12:15:54;;;;;;;10.13;8.20;;;;;;;;;;5024598;28;20201;-79
2024/01/07 12:18:21;;;;;;;9.90;8.10;;;;;;;;;;5014067;28;20254;-78
2024/01/07 12:21:00;;;;;;;11.20;7.63;;;;;;;;;;5021371;28;20270;-78
2024/01/07 12:23:26;;;;;;;11.00;8.13;;;;;;;;;;5013486;28;20211;-78
2024/01/07 12:25:53;;;;;;;12.40;8.40;;;;;;;;;;5019779;28;20680;-78
2024/01/07 12:28:19;;;;;;;10.77;8.13;;;;;;;;;;5020254;28;20175;-78
2024/01/07 12:30:46;;;;;;;12.27;8.30;;;;;;;;;;5018675;28;20192;-77
2024/01/07 12:33:12;;;;;;;10.00;7.70;;;;;;;;;;5018980;28;20768;-78
2024/01/07 12:35:38;;;;;;;12.67;8.53;;;;;;;;;;5020677;28;20222;-78
2024/01/07 12:38:05;;;;;;;11.43;8.60;;;;;;;;;;5022050;28;20659;-78
2024/01/07 12:40:31;;;;;;;11.13;8.20;;;;;;;;;;5020549;28;20206;-77
2024/01/07 12:42:58;;;;;;;11.60;8.60;;;;;;;;;;5007194;28;20293;-77
2024/01/07 12:45:24;;;;;;;13.77;8.63;;;;;;;;;;5005648;28;20569;-78
2024/01/07 12:47:50;;;;;;;12.30;8.33;;;;;;;;;;5023205;28;20245;-77
2024/01/07 12:50:16;;;;;;;11.40;8.40;;;;;;;;;;5006468;28;20635;-78
2024/01/07 12:52:42;;;;;;;13.40;8.97;;;;;;;;;;5024068;28;20219;-77
2024/01/07 12:55:08;;;;;;;12.10;8.40;;;;;;;;;;5025727;28;20229;-78
2024/01/07 12:57:35;;;;;;;11.27;8.03;;;;;;;;;;5015459;28;20182;-78
2024/01/07 13:00:01;;;;;;;11.07;8.07;;;;;;;;;;5016740;28;20191;-80
2024/01/07 13:02:27;;;;;;;13.17;7.70;;;;;;;;;;5031324;28;20235;-79
2024/01/07 13:04:53;;;;;;;12.10;8.30;;;;;;;;;;5034186;28;20186;-80
2024/01/07 13:07:20;;;;;;;12.57;8.73;;;;;;;;;;5030264;28;20183;-80
2024/01/07 13:09:46;;;;;;;11.87;8.53;;;;;;;;;;4995021;28;20229;-80
2024/01/07 13:12:13;;;;;;;12.77;8.93;;;;;;;;;;5026016;28;20219;-80
2024/01/07 13:14:39;;;;;;;13.10;9.03;;;;;;;;;;5012600;28;20187;-79
2024/01/07 13:17:05;;;;;;;10.57;8.30;;;;;;;;;;5030527;28;20244;-79
2024/01/07 13:19:31;;;;;;;10.93;8.20;;;;;;;;;;5030870;28;20187;-79
2024/01/07 13:22:01;;;;;;;11.27;8.10;;;;;;;;;;5011857;28;20179;-80
2024/01/07 13:24:27;;;;;;;10.37;7.23;;;;;;;;;;5009676;28;20598;-80
2024/01/07 13:26:54;;;;;;;10.83;7.37;;;;;;;;;;5015989;28;20191;-80
2024/01/07 13:29:20;;;;;;;10.10;7.23;;;;;;;;;;5019941;28;20766;-80
2024/01/07 13:31:46;;;;;;;10.00;7.33;;;;;;;;;;5020128;28;20683;-80
2024/01/07 13:34:14;;;;;;;9.80;6.83;;;;;;;;;;5010639;28;20284;-80
2024/01/07 13:36:40;;;;;;;8.90;6.53;;;;;;;;;;5028781;28;20197;-79
2024/01/07 13:39:07;;;;;;;10.70;7.13;;;;;;;;;;5026867;28;20593;-79
2024/01/07 13:41:34;;;;;;;9.13;7.10;;;;;;;;;;5028054;28;20187;-79
2024/01/07 13:44:02;;;;;;;10.03;7.27;;;;;;;;;;5022216;28;20305;-80
2024/01/07 13:46:29;;;;;;;10.73;6.93;;;;;;;;;;5028495;28;20197;-78
2024/01/07 13:48:55;;;;;;;11.67;7.10;;;;;;;;;;5026094;28;20190;-73
2024/01/07 13:51:22;;;;;;;10.50;7.10;;;;;;;;;;5023378;28;20183;-73
2024/01/07 13:53:48;;;;;;;10.43;6.83;;;;;;;;;;5019080;28;20297;-73
2024/01/07 13:56:14;;;;;;;9.20;7.40;;;;;;;;;;5024959;28;20616;-73
2024/01/07 13:58:40;;;;;;;10.77;7.23;;;;;;;;;;5024139;28;20261;-74
2024/01/07 14:01:10;;;;;;;10.30;7.07;;;;;;;;;;5023848;28;20186;-74
2024/01/07 14:03:42;;;;;;;10.83;7.00;;;;;;;;;;5025778;28;20264;-75
2024/01/07 14:06:08;;;;;;;10.17;7.60;;;;;;;;;;5026569;28;20590;-77
2024/01/07 14:08:34;;;;;;;10.43;7.43;;;;;;;;;;5022777;28;20188;-77
2024/01/07 14:11:01;;;;;;;9.60;6.90;;;;;;;;;;5021712;28;20183;-77
2024/01/07 14:13:28;;;;;;;11.50;7.60;;;;;;;;;;5031634;28;20222;-76
2024/01/07 14:15:54;;;;;;;10.63;7.30;;;;;;;;;;5033175;28;20183;-76
2024/01/07 14:18:22;;;;;;;16.50;9.13;;;;;;;;;;5020384;28;20729;-77
2024/01/07 14:20:48;;;;;;;10.83;7.07;;;;;;;;;;5024099;28;20186;-76
2024/01/07 14:23:14;;;;;;;10.33;7.03;;;;;;;;;;5022080;28;20240;-79
2024/01/07 14:25:41;;;;;;;12.43;7.40;;;;;;;;;;5006229;28;20203;-76
2024/01/07 14:28:07;;;;;;;11.13;7.33;;;;;;;;;;5020803;28;20201;-75